Terminal Aerodrome Forecast
Issued by NWS Riverton, WY

Home | Current Version | Previous Version | Text Only | Print | Product List | Glossary On
Versions: 1 2 3 4 5 6 7 8 9 10 11 12 13 14 15 16
784
FTUS45 KRIW 241120
TAFRIW
TAF
KRIW 241120Z 2412/2512 27007KT P6SM VCFG FEW003 SCT060
     FM241600 21006KT P6SM SCT250
     FM250100 24006KT P6SM SCT120 BKN200=

USA.gov is the U.S. government's official web portal to all federal, state and local government web resources and services.